sensor_id;sensor_type;location;lat;lon;timestamp;temperature;humidity
77039;DHT22;65970;50.476;4.840;2024-01-30T00:04:11;11.30;45.50
77039;DHT22;65970;50.476;4.840;2024-01-30T00:09:11;11.20;45.40
77039;DHT22;65970;50.476;4.840;2024-01-30T00:14:12;11.20;45.30
77039;DHT22;65970;50.476;4.840;2024-01-30T00:19:12;11.20;45.20
77039;DHT22;65970;50.476;4.840;2024-01-30T00:24:13;11.20;45.10
77039;DHT22;65970;50.476;4.840;2024-01-30T00:29:14;11.20;45.00
77039;DHT22;65970;50.476;4.840;2024-01-30T00:34:14;11.20;45.00
77039;DHT22;65970;50.476;4.840;2024-01-30T00:39:15;11.20;44.60
77039;DHT22;65970;50.476;4.840;2024-01-30T00:44:15;11.10;44.80
77039;DHT22;65970;50.476;4.840;2024-01-30T00:49:16;11.10;44.60
77039;DHT22;65970;50.476;4.840;2024-01-30T00:54:16;11.10;44.10
77039;DHT22;65970;50.476;4.840;2024-01-30T00:59:17;11.10;44.70
77039;DHT22;65970;50.476;4.840;2024-01-30T01:04:17;11.10;44.70
77039;DHT22;65970;50.476;4.840;2024-01-30T01:09:18;11.00;44.50
77039;DHT22;65970;50.476;4.840;2024-01-30T01:14:18;11.00;44.70
77039;DHT22;65970;50.476;4.840;2024-01-30T01:19:19;11.00;44.80
77039;DHT22;65970;50.476;4.840;2024-01-30T01:24:20;11.00;45.00
77039;DHT22;65970;50.476;4.840;2024-01-30T01:29:20;11.00;45.00
77039;DHT22;65970;50.476;4.840;2024-01-30T01:34:21;10.90;45.00
77039;DHT22;65970;50.476;4.840;2024-01-30T01:39:22;10.90;45.00
77039;DHT22;65970;50.476;4.840;2024-01-30T01:44:23;10.90;44.80
77039;DHT22;65970;50.476;4.840;2024-01-30T01:49:25;10.90;45.00
77039;DHT22;65970;50.476;4.840;2024-01-30T01:54:28;10.90;45.10
77039;DHT22;65970;50.476;4.840;2024-01-30T01:59:29;10.90;45.10
77039;DHT22;65970;50.476;4.840;2024-01-30T02:04:30;10.80;45.10
77039;DHT22;65970;50.476;4.840;2024-01-30T02:09:31;10.90;45.20
77039;DHT22;65970;50.476;4.840;2024-01-30T02:14:31;10.80;45.00
77039;DHT22;65970;50.476;4.840;2024-01-30T02:19:32;10.90;45.10
77039;DHT22;65970;50.476;4.840;2024-01-30T02:24:32;10.80;45.20
77039;DHT22;65970;50.476;4.840;2024-01-30T02:29:33;10.90;45.20
77039;DHT22;65970;50.476;4.840;2024-01-30T02:34:34;10.90;45.30
77039;DHT22;65970;50.476;4.840;2024-01-30T02:39:34;10.90;45.40
77039;DHT22;65970;50.476;4.840;2024-01-30T02:44:35;10.90;44.30
77039;DHT22;65970;50.476;4.840;2024-01-30T02:49:35;10.90;45.30
77039;DHT22;65970;50.476;4.840;2024-01-30T02:54:36;10.90;45.30
77039;DHT22;65970;50.476;4.840;2024-01-30T02:59:36;10.90;45.30
77039;DHT22;65970;50.476;4.840;2024-01-30T03:04:37;10.90;45.30
77039;DHT22;65970;50.476;4.840;2024-01-30T03:09:37;10.90;45.30
77039;DHT22;65970;50.476;4.840;2024-01-30T03:14:38;10.90;45.20
77039;DHT22;65970;50.476;4.840;2024-01-30T03:19:39;10.90;45.20
77039;DHT22;65970;50.476;4.840;2024-01-30T03:24:39;10.90;45.20
77039;DHT22;65970;50.476;4.840;2024-01-30T03:29:40;10.90;45.10
77039;DHT22;65970;50.476;4.840;2024-01-30T03:34:40;10.90;45.10
77039;DHT22;65970;50.476;4.840;2024-01-30T03:39:41;10.90;45.10
77039;DHT22;65970;50.476;4.840;2024-01-30T03:44:41;10.90;45.00
77039;DHT22;65970;50.476;4.840;2024-01-30T03:49:42;10.90;45.00
77039;DHT22;65970;50.476;4.840;2024-01-30T03:54:43;10.90;45.00
77039;DHT22;65970;50.476;4.840;2024-01-30T03:59:44;10.90;45.00
77039;DHT22;65970;50.476;4.840;2024-01-30T04:04:44;10.90;45.00
77039;DHT22;65970;50.476;4.840;2024-01-30T04:09:45;10.90;45.00
77039;DHT22;65970;50.476;4.840;2024-01-30T04:14:45;10.90;45.00
77039;DHT22;65970;50.476;4.840;2024-01-30T04:19:46;10.90;45.10
77039;DHT22;65970;50.476;4.840;2024-01-30T04:24:46;10.90;45.10
77039;DHT22;65970;50.476;4.840;2024-01-30T04:29:47;10.90;45.10
77039;DHT22;65970;50.476;4.840;2024-01-30T04:34:47;10.90;45.10
77039;DHT22;65970;50.476;4.840;2024-01-30T04:39:48;10.90;45.10
77039;DHT22;65970;50.476;4.840;2024-01-30T04:44:49;11.00;45.10
77039;DHT22;65970;50.476;4.840;2024-01-30T04:49:51;11.00;45.00
77039;DHT22;65970;50.476;4.840;2024-01-30T04:54:52;11.00;45.10
77039;DHT22;65970;50.476;4.840;2024-01-30T04:59:52;11.00;45.00
77039;DHT22;65970;50.476;4.840;2024-01-30T05:04:53;11.00;45.00
77039;DHT22;65970;50.476;4.840;2024-01-30T05:09:53;11.00;44.90
77039;DHT22;65970;50.476;4.840;2024-01-30T05:14:54;10.90;45.00
77039;DHT22;65970;50.476;4.840;2024-01-30T05:19:54;10.90;45.00
77039;DHT22;65970;50.476;4.840;2024-01-30T05:24:55;10.90;44.90
77039;DHT22;65970;50.476;4.840;2024-01-30T05:29:56;11.00;44.90
77039;DHT22;65970;50.476;4.840;2024-01-30T05:34:56;11.00;44.90
77039;DHT22;65970;50.476;4.840;2024-01-30T05:39:57;11.00;44.90
77039;DHT22;65970;50.476;4.840;2024-01-30T05:44:57;11.00;44.90
77039;DHT22;65970;50.476;4.840;2024-01-30T05:49:58;11.00;44.90
77039;DHT22;65970;50.476;4.840;2024-01-30T05:55:01;11.00;45.00
77039;DHT22;65970;50.476;4.840;2024-01-30T06:00:01;11.00;45.00
77039;DHT22;65970;50.476;4.840;2024-01-30T06:05:02;10.90;45.00
77039;DHT22;65970;50.476;4.840;2024-01-30T06:10:03;11.00;45.00
77039;DHT22;65970;50.476;4.840;2024-01-30T06:15:04;11.00;45.10
77039;DHT22;65970;50.476;4.840;2024-01-30T06:20:05;10.90;45.10
77039;DHT22;65970;50.476;4.840;2024-01-30T06:25:06;11.00;45.20
77039;DHT22;65970;50.476;4.840;2024-01-30T06:30:07;11.00;45.20
77039;DHT22;65970;50.476;4.840;2024-01-30T06:35:08;11.00;45.20
77039;DHT22;65970;50.476;4.840;2024-01-30T06:40:09;11.00;45.30
77039;DHT22;65970;50.476;4.840;2024-01-30T06:45:10;11.00;45.30
77039;DHT22;65970;50.476;4.840;2024-01-30T06:50:10;11.00;45.30
77039;DHT22;65970;50.476;4.840;2024-01-30T06:55:11;11.00;45.30
77039;DHT22;65970;50.476;4.840;2024-01-30T07:00:12;11.00;45.30
77039;DHT22;65970;50.476;4.840;2024-01-30T07:05:12;11.00;45.20
77039;DHT22;65970;50.476;4.840;2024-01-30T07:10:13;11.00;45.20
77039;DHT22;65970;50.476;4.840;2024-01-30T07:15:14;11.00;45.20
77039;DHT22;65970;50.476;4.840;2024-01-30T07:20:14;11.10;45.30
77039;DHT22;65970;50.476;4.840;2024-01-30T07:25:15;11.00;45.20
77039;DHT22;65970;50.476;4.840;2024-01-30T07:30:15;11.00;45.10
77039;DHT22;65970;50.476;4.840;2024-01-30T07:35:16;11.00;45.10
77039;DHT22;65970;50.476;4.840;2024-01-30T07:40:17;11.00;45.10
77039;DHT22;65970;50.476;4.840;2024-01-30T07:45:18;11.00;45.00
77039;DHT22;65970;50.476;4.840;2024-01-30T07:50:18;11.00;43.20
77039;DHT22;65970;50.476;4.840;2024-01-30T07:55:19;11.00;45.00
77039;DHT22;65970;50.476;4.840;2024-01-30T08:00:21;11.00;45.10
77039;DHT22;65970;50.476;4.840;2024-01-30T08:05:22;11.00;45.00
77039;DHT22;65970;50.476;4.840;2024-01-30T08:10:23;11.00;45.00
77039;DHT22;65970;50.476;4.840;2024-01-30T08:15:23;11.00;45.00
77039;DHT22;65970;50.476;4.840;2024-01-30T08:20:25;11.00;45.00
77039;DHT22;65970;50.476;4.840;2024-01-30T08:25:25;11.00;45.10
77039;DHT22;65970;50.476;4.840;2024-01-30T08:30:26;11.00;45.10
77039;DHT22;65970;50.476;4.840;2024-01-30T08:35:26;11.00;45.20
77039;DHT22;65970;50.476;4.840;2024-01-30T08:40:27;11.00;45.20
77039;DHT22;65970;50.476;4.840;2024-01-30T08:45:27;11.00;45.30
77039;DHT22;65970;50.476;4.840;2024-01-30T08:50:28;11.00;45.40
77039;DHT22;65970;50.476;4.840;2024-01-30T08:55:28;11.00;45.50
77039;DHT22;65970;50.476;4.840;2024-01-30T09:00:29;11.00;45.60
77039;DHT22;65970;50.476;4.840;2024-01-30T09:05:29;11.10;45.80
77039;DHT22;65970;50.476;4.840;2024-01-30T09:10:30;11.10;45.90
77039;DHT22;65970;50.476;4.840;2024-01-30T09:15:30;11.10;46.10
77039;DHT22;65970;50.476;4.840;2024-01-30T09:20:31;11.10;46.10
77039;DHT22;65970;50.476;4.840;2024-01-30T09:25:31;11.10;46.20
77039;DHT22;65970;50.476;4.840;2024-01-30T09:30:32;11.10;46.20
77039;DHT22;65970;50.476;4.840;2024-01-30T09:35:33;11.10;46.20
77039;DHT22;65970;50.476;4.840;2024-01-30T09:40:33;11.20;46.20
77039;DHT22;65970;50.476;4.840;2024-01-30T09:45:35;11.20;46.10
77039;DHT22;65970;50.476;4.840;2024-01-30T09:50:36;11.20;46.10
77039;DHT22;65970;50.476;4.840;2024-01-30T09:55:37;11.20;46.20
77039;DHT22;65970;50.476;4.840;2024-01-30T10:00:37;11.20;46.20
77039;DHT22;65970;50.476;4.840;2024-01-30T10:05:40;11.20;46.20
77039;DHT22;65970;50.476;4.840;2024-01-30T10:10:41;11.30;46.40
77039;DHT22;65970;50.476;4.840;2024-01-30T10:15:42;11.30;46.40
77039;DHT22;65970;50.476;4.840;2024-01-30T10:20:42;11.30;46.40
77039;DHT22;65970;50.476;4.840;2024-01-30T10:25:43;11.30;46.50
77039;DHT22;65970;50.476;4.840;2024-01-30T10:30:43;11.30;46.40
77039;DHT22;65970;50.476;4.840;2024-01-30T10:35:44;11.40;46.60
77039;DHT22;65970;50.476;4.840;2024-01-30T10:40:47;11.40;46.60
77039;DHT22;65970;50.476;4.840;2024-01-30T10:45:53;11.40;46.60
77039;DHT22;65970;50.476;4.840;2024-01-30T10:50:59;11.40;46.70
77039;DHT22;65970;50.476;4.840;2024-01-30T10:56:01;11.50;47.00
77039;DHT22;65970;50.476;4.840;2024-01-30T11:01:03;11.50;47.00
77039;DHT22;65970;50.476;4.840;2024-01-30T11:06:04;11.50;46.90
77039;DHT22;65970;50.476;4.840;2024-01-30T11:11:09;11.60;47.00
77039;DHT22;65970;50.476;4.840;2024-01-30T11:16:11;11.60;47.00
77039;DHT22;65970;50.476;4.840;2024-01-30T11:21:13;11.60;47.10
77039;DHT22;65970;50.476;4.840;2024-01-30T11:26:14;11.60;47.10
77039;DHT22;65970;50.476;4.840;2024-01-30T11:31:18;11.60;47.10
77039;DHT22;65970;50.476;4.840;2024-01-30T11:36:22;11.60;47.10
77039;DHT22;65970;50.476;4.840;2024-01-30T11:41:24;11.70;47.20
77039;DHT22;65970;50.476;4.840;2024-01-30T11:46:25;11.70;47.20
77039;DHT22;65970;50.476;4.840;2024-01-30T11:51:26;11.70;47.30
77039;DHT22;65970;50.476;4.840;2024-01-30T11:56:26;11.70;47.30
77039;DHT22;65970;50.476;4.840;2024-01-30T12:01:27;11.70;47.30
77039;DHT22;65970;50.476;4.840;2024-01-30T12:06:28;11.80;47.30
77039;DHT22;65970;50.476;4.840;2024-01-30T12:11:29;11.80;45.80
77039;DHT22;65970;50.476;4.840;2024-01-30T12:16:29;11.80;47.40
77039;DHT22;65970;50.476;4.840;2024-01-30T12:21:30;11.80;47.40
77039;DHT22;65970;50.476;4.840;2024-01-30T12:26:30;11.80;47.50
77039;DHT22;65970;50.476;4.840;2024-01-30T12:31:32;11.80;47.50
77039;DHT22;65970;50.476;4.840;2024-01-30T12:36:33;11.80;47.40
77039;DHT22;65970;50.476;4.840;2024-01-30T12:41:34;11.90;47.70
77039;DHT22;65970;50.476;4.840;2024-01-30T12:46:35;11.90;47.70
77039;DHT22;65970;50.476;4.840;2024-01-30T12:51:36;11.90;47.70
77039;DHT22;65970;50.476;4.840;2024-01-30T12:56:36;11.90;47.90
77039;DHT22;65970;50.476;4.840;2024-01-30T13:01:37;11.90;47.80
77039;DHT22;65970;50.476;4.840;2024-01-30T13:06:37;11.90;47.80
77039;DHT22;65970;50.476;4.840;2024-01-30T13:11:38;12.00;47.60
77039;DHT22;65970;50.476;4.840;2024-01-30T13:16:38;12.00;47.50
77039;DHT22;65970;50.476;4.840;2024-01-30T13:21:39;12.00;47.40
77039;DHT22;65970;50.476;4.840;2024-01-30T13:26:39;12.00;47.50
77039;DHT22;65970;50.476;4.840;2024-01-30T13:31:40;12.00;47.40
77039;DHT22;65970;50.476;4.840;2024-01-30T13:36:41;12.00;47.40
77039;DHT22;65970;50.476;4.840;2024-01-30T13:41:42;12.00;47.30
77039;DHT22;65970;50.476;4.840;2024-01-30T13:46:43;12.00;47.30
77039;DHT22;65970;50.476;4.840;2024-01-30T13:51:43;12.00;47.20
77039;DHT22;65970;50.476;4.840;2024-01-30T13:56:44;12.00;47.40
77039;DHT22;65970;50.476;4.840;2024-01-30T14:01:45;12.00;47.60
77039;DHT22;65970;50.476;4.840;2024-01-30T14:06:45;12.00;47.40
77039;DHT22;65970;50.476;4.840;2024-01-30T14:11:46;12.00;47.20
77039;DHT22;65970;50.476;4.840;2024-01-30T14:16:47;12.00;47.00
77039;DHT22;65970;50.476;4.840;2024-01-30T14:21:47;12.00;47.10
77039;DHT22;65970;50.476;4.840;2024-01-30T14:26:48;11.90;46.90
77039;DHT22;65970;50.476;4.840;2024-01-30T14:31:48;11.90;46.80
77039;DHT22;65970;50.476;4.840;2024-01-30T14:36:49;11.90;47.00
77039;DHT22;65970;50.476;4.840;2024-01-30T14:41:49;11.90;46.90
77039;DHT22;65970;50.476;4.840;2024-01-30T14:46:50;11.90;47.20
77039;DHT22;65970;50.476;4.840;2024-01-30T14:51:51;11.90;47.20
77039;DHT22;65970;50.476;4.840;2024-01-30T14:56:52;11.90;46.90
77039;DHT22;65970;50.476;4.840;2024-01-30T15:01:53;11.90;46.80
77039;DHT22;65970;50.476;4.840;2024-01-30T15:06:54;11.90;47.00
77039;DHT22;65970;50.476;4.840;2024-01-30T15:11:54;11.90;47.10
77039;DHT22;65970;50.476;4.840;2024-01-30T15:16:55;11.90;47.00
77039;DHT22;65970;50.476;4.840;2024-01-30T15:21:55;11.80;46.90
77039;DHT22;65970;50.476;4.840;2024-01-30T15:26:56;11.80;47.00
77039;DHT22;65970;50.476;4.840;2024-01-30T15:31:57;11.90;47.00
77039;DHT22;65970;50.476;4.840;2024-01-30T15:36:57;11.90;47.10
77039;DHT22;65970;50.476;4.840;2024-01-30T15:41:58;11.80;47.20
77039;DHT22;65970;50.476;4.840;2024-01-30T15:46:58;11.80;47.20
77039;DHT22;65970;50.476;4.840;2024-01-30T15:51:59;11.80;47.10
77039;DHT22;65970;50.476;4.840;2024-01-30T15:57:00;11.80;47.00
77039;DHT22;65970;50.476;4.840;2024-01-30T16:02:00;11.70;46.90
77039;DHT22;65970;50.476;4.840;2024-01-30T16:07:01;11.70;46.40
77039;DHT22;65970;50.476;4.840;2024-01-30T16:12:01;11.70;46.30
77039;DHT22;65970;50.476;4.840;2024-01-30T16:17:02;11.70;45.80
77039;DHT22;65970;50.476;4.840;2024-01-30T16:22:03;11.70;45.70
77039;DHT22;65970;50.476;4.840;2024-01-30T16:27:03;11.60;45.20
77039;DHT22;65970;50.476;4.840;2024-01-30T16:32:04;11.70;45.50
77039;DHT22;65970;50.476;4.840;2024-01-30T16:37:05;11.60;45.00
77039;DHT22;65970;50.476;4.840;2024-01-30T16:42:06;11.60;45.10
77039;DHT22;65970;50.476;4.840;2024-01-30T16:47:06;11.60;44.90
77039;DHT22;65970;50.476;4.840;2024-01-30T16:52:07;11.50;44.90
77039;DHT22;65970;50.476;4.840;2024-01-30T16:57:07;11.50;44.40
77039;DHT22;65970;50.476;4.840;2024-01-30T17:02:08;11.50;44.40
77039;DHT22;65970;50.476;4.840;2024-01-30T17:07:09;11.50;44.50
77039;DHT22;65970;50.476;4.840;2024-01-30T17:12:09;11.40;44.10
77039;DHT22;65970;50.476;4.840;2024-01-30T17:17:10;11.40;43.60
77039;DHT22;65970;50.476;4.840;2024-01-30T17:22:10;11.40;44.00
77039;DHT22;65970;50.476;4.840;2024-01-30T17:27:13;11.40;44.10
77039;DHT22;65970;50.476;4.840;2024-01-30T17:32:14;11.40;44.10
77039;DHT22;65970;50.476;4.840;2024-01-30T17:37:14;11.30;44.10
77039;DHT22;65970;50.476;4.840;2024-01-30T17:42:15;11.30;43.70
77039;DHT22;65970;50.476;4.840;2024-01-30T17:47:15;11.30;43.60
77039;DHT22;65970;50.476;4.840;2024-01-30T17:52:16;11.30;43.80
77039;DHT22;65970;50.476;4.840;2024-01-30T17:57:16;11.20;43.30
77039;DHT22;65970;50.476;4.840;2024-01-30T18:02:17;11.20;43.20
77039;DHT22;65970;50.476;4.840;2024-01-30T18:07:18;11.20;43.20
77039;DHT22;65970;50.476;4.840;2024-01-30T18:12:18;11.20;43.30
77039;DHT22;65970;50.476;4.840;2024-01-30T18:17:19;11.20;42.00
77039;DHT22;65970;50.476;4.840;2024-01-30T18:22:19;11.20;41.50
77039;DHT22;65970;50.476;4.840;2024-01-30T18:27:20;11.20;40.90
77039;DHT22;65970;50.476;4.840;2024-01-30T18:32:20;11.20;41.30
77039;DHT22;65970;50.476;4.840;2024-01-30T18:37:21;11.10;40.50
77039;DHT22;65970;50.476;4.840;2024-01-30T18:42:21;11.10;41.40
77039;DHT22;65970;50.476;4.840;2024-01-30T18:47:22;11.10;42.30
77039;DHT22;65970;50.476;4.840;2024-01-30T18:52:24;11.10;42.30
77039;DHT22;65970;50.476;4.840;2024-01-30T18:57:24;11.00;42.00
77039;DHT22;65970;50.476;4.840;2024-01-30T19:02:25;11.00;41.90
77039;DHT22;65970;50.476;4.840;2024-01-30T19:07:25;11.00;40.90
77039;DHT22;65970;50.476;4.840;2024-01-30T19:12:26;11.00;41.20
77039;DHT22;65970;50.476;4.840;2024-01-30T19:17:26;11.00;40.30
77039;DHT22;65970;50.476;4.840;2024-01-30T19:22:27;11.00;41.40
77039;DHT22;65970;50.476;4.840;2024-01-30T19:27:27;10.90;41.70
77039;DHT22;65970;50.476;4.840;2024-01-30T19:32:28;11.00;39.50
77039;DHT22;65970;50.476;4.840;2024-01-30T19:37:29;10.90;39.50
77039;DHT22;65970;50.476;4.840;2024-01-30T19:42:29;10.90;39.20
77039;DHT22;65970;50.476;4.840;2024-01-30T19:47:30;10.90;40.80
77039;DHT22;65970;50.476;4.840;2024-01-30T19:52:30;10.90;39.20
77039;DHT22;65970;50.476;4.840;2024-01-30T19:57:31;10.90;39.20
77039;DHT22;65970;50.476;4.840;2024-01-30T20:02:32;10.80;38.90
77039;DHT22;65970;50.476;4.840;2024-01-30T20:07:32;10.80;38.60
77039;DHT22;65970;50.476;4.840;2024-01-30T20:12:33;10.80;38.90
77039;DHT22;65970;50.476;4.840;2024-01-30T20:17:33;10.80;38.00
77039;DHT22;65970;50.476;4.840;2024-01-30T20:22:34;10.80;38.50
77039;DHT22;65970;50.476;4.840;2024-01-30T20:27:34;10.80;38.00
77039;DHT22;65970;50.476;4.840;2024-01-30T20:32:35;10.70;38.00
77039;DHT22;65970;50.476;4.840;2024-01-30T20:37:37;10.70;37.70
77039;DHT22;65970;50.476;4.840;2024-01-30T20:42:37;10.70;37.70
77039;DHT22;65970;50.476;4.840;2024-01-30T20:47:38;10.70;37.80
77039;DHT22;65970;50.476;4.840;2024-01-30T20:52:38;10.70;38.10
77039;DHT22;65970;50.476;4.840;2024-01-30T20:57:39;10.70;37.50
77039;DHT22;65970;50.476;4.840;2024-01-30T21:02:40;10.60;37.90
77039;DHT22;65970;50.476;4.840;2024-01-30T21:07:40;10.70;38.10
77039;DHT22;65970;50.476;4.840;2024-01-30T21:12:41;10.60;37.90
77039;DHT22;65970;50.476;4.840;2024-01-30T21:17:41;10.60;37.60
77039;DHT22;65970;50.476;4.840;2024-01-30T21:22:42;10.60;37.50
77039;DHT22;65970;50.476;4.840;2024-01-30T21:27:42;10.60;37.40
77039;DHT22;65970;50.476;4.840;2024-01-30T21:32:43;10.60;37.30
77039;DHT22;65970;50.476;4.840;2024-01-30T21:37:43;10.60;38.10
77039;DHT22;65970;50.476;4.840;2024-01-30T21:42:44;10.50;37.60
77039;DHT22;65970;50.476;4.840;2024-01-30T21:47:44;10.50;37.30
77039;DHT22;65970;50.476;4.840;2024-01-30T21:52:45;10.50;37.80
77039;DHT22;65970;50.476;4.840;2024-01-30T21:57:46;10.50;37.80
77039;DHT22;65970;50.476;4.840;2024-01-30T22:02:46;10.50;38.50
77039;DHT22;65970;50.476;4.840;2024-01-30T22:07:47;10.50;37.50
77039;DHT22;65970;50.476;4.840;2024-01-30T22:12:47;10.40;37.10
77039;DHT22;65970;50.476;4.840;2024-01-30T22:17:48;10.40;37.10
77039;DHT22;65970;50.476;4.840;2024-01-30T22:22:48;10.40;37.20
77039;DHT22;65970;50.476;4.840;2024-01-30T22:27:49;10.40;37.40
77039;DHT22;65970;50.476;4.840;2024-01-30T22:32:50;10.40;37.10
77039;DHT22;65970;50.476;4.840;2024-01-30T22:37:50;10.40;37.10
77039;DHT22;65970;50.476;4.840;2024-01-30T22:42:51;10.40;37.10
77039;DHT22;65970;50.476;4.840;2024-01-30T22:47:51;10.40;37.10
77039;DHT22;65970;50.476;4.840;2024-01-30T22:52:52;10.30;37.80
77039;DHT22;65970;50.476;4.840;2024-01-30T22:57:52;10.30;37.60
77039;DHT22;65970;50.476;4.840;2024-01-30T23:02:53;10.30;38.10
77039;DHT22;65970;50.476;4.840;2024-01-30T23:07:54;10.30;39.40
77039;DHT22;65970;50.476;4.840;2024-01-30T23:12:54;10.30;38.70
77039;DHT22;65970;50.476;4.840;2024-01-30T23:17:55;10.30;38.20
77039;DHT22;65970;50.476;4.840;2024-01-30T23:22:55;10.30;38.00
77039;DHT22;65970;50.476;4.840;2024-01-30T23:27:56;10.30;38.00
77039;DHT22;65970;50.476;4.840;2024-01-30T23:32:56;10.20;38.10
77039;DHT22;65970;50.476;4.840;2024-01-30T23:37:57;10.20;37.80
77039;DHT22;65970;50.476;4.840;2024-01-30T23:42:58;10.20;38.00
77039;DHT22;65970;50.476;4.840;2024-01-30T23:47:58;10.20;38.00
77039;DHT22;65970;50.476;4.840;2024-01-30T23:52:59;10.20;38.20
77039;DHT22;65970;50.476;4.840;2024-01-30T23:57:59;10.20;38.00
